Time;durP1;ratioP1;P1;durP2;ratioP2;P2;SDS_P1;SDS_P2;PMS_P1;PMS_P2;Temp;Humidity;BMP_temperature;BMP_pressure;BME280_temperature;BME280_humidity;BME280_pressure;Samples;Min_cycle;Max_cycle;Signal;HPM_P1;HPM_P2
2024/02/20 00:00:09;;;;;;;18.57;2.63;;;7.50;99.90;;;;;;5013708;28;20510;-53
2024/02/20 00:02:41;;;;;;;15.70;2.43;;;7.50;99.90;;;;;;5014987;28;20037;-54
2024/02/20 00:05:08;;;;;;;11.70;2.63;;;7.40;99.90;;;;;;5014484;28;20038;-50
2024/02/20 00:07:34;;;;;;;8.63;2.37;;;7.40;99.90;;;;;;5014727;28;20423;-54
2024/02/20 00:10:00;;;;;;;16.73;2.63;;;7.40;99.90;;;;;;5014581;28;20072;-51
2024/02/20 00:12:26;;;;;;;17.90;2.87;;;7.40;99.90;;;;;;5014793;28;20430;-52
2024/02/20 00:14:51;;;;;;;19.47;3.00;;;7.40;99.90;;;;;;5015018;28;20026;-53
2024/02/20 00:17:17;;;;;;;10.70;2.13;;;7.40;99.90;;;;;;5014495;28;20037;-54
2024/02/20 00:19:43;;;;;;;19.10;3.63;;;7.40;99.90;;;;;;5014251;28;20030;-51
2024/02/20 00:22:09;;;;;;;14.57;2.40;;;7.30;99.90;;;;;;5014588;28;20029;-52
2024/02/20 00:24:35;;;;;;;15.57;2.43;;;7.30;99.90;;;;;;5014543;28;20540;-49
2024/02/20 00:27:00;;;;;;;15.43;2.33;;;7.20;99.90;;;;;;5014696;28;20038;-50
2024/02/20 00:29:26;;;;;;;16.93;2.77;;;7.20;99.90;;;;;;5014211;28;20044;-49
2024/02/20 00:31:51;;;;;;;13.00;2.50;;;7.10;99.90;;;;;;5014747;28;20080;-51
2024/02/20 00:34:18;;;;;;;15.13;3.57;;;7.00;99.90;;;;;;5015149;28;20026;-48
2024/02/20 00:36:44;;;;;;;15.13;2.27;;;7.00;99.90;;;;;;5015280;28;20553;-49
2024/02/20 00:39:12;;;;;;;18.77;3.03;;;6.90;99.90;;;;;;5015331;28;20030;-51
2024/02/20 00:41:38;;;;;;;16.27;3.03;;;6.90;99.90;;;;;;5015054;28;20058;-53
2024/02/20 00:44:04;;;;;;;16.77;2.93;;;6.80;99.90;;;;;;5014794;28;20049;-49
2024/02/20 00:46:29;;;;;;;20.17;3.43;;;6.80;99.90;;;;;;5013236;28;20513;-49
2024/02/20 00:48:55;;;;;;;15.23;3.80;;;6.70;99.90;;;;;;5013616;28;20112;-48
2024/02/20 00:51:22;;;;;;;22.40;4.13;;;6.70;99.90;;;;;;5013634;28;20022;-49
2024/02/20 00:53:51;;;;;;;19.37;3.63;;;6.60;99.90;;;;;;5013698;28;20033;-50
2024/02/20 00:56:17;;;;;;;15.70;2.95;;;6.50;99.90;;;;;;5012516;28;20030;-52
2024/02/20 00:58:43;;;;;;;22.77;3.47;;;6.50;99.90;;;;;;5013775;28;20037;-50
2024/02/20 01:01:14;;;;;;;18.37;3.53;;;6.40;99.90;;;;;;5013611;28;20378;-50
2024/02/20 01:03:42;;;;;;;19.33;3.10;;;6.40;99.90;;;;;;5013453;28;20030;-50
2024/02/20 01:06:09;;;;;;;20.67;4.43;;;6.30;99.90;;;;;;5012921;28;20038;-49
2024/02/20 01:08:39;;;;;;;14.13;3.33;;;6.30;99.90;;;;;;5013527;28;20498;-52
2024/02/20 01:11:05;;;;;;;18.47;3.80;;;6.20;99.90;;;;;;5013168;28;20028;-52
2024/02/20 01:13:31;;;;;;;17.03;3.60;;;6.20;99.90;;;;;;5013365;28;20386;-52
2024/02/20 01:15:57;;;;;;;25.10;4.13;;;6.20;99.90;;;;;;5013402;28;20434;-53
2024/02/20 01:18:23;;;;;;;16.47;3.57;;;6.20;99.90;;;;;;5013206;28;20030;-53
2024/02/20 01:20:48;;;;;;;18.00;3.87;;;6.20;99.90;;;;;;5013084;28;20064;-50
2024/02/20 01:23:14;;;;;;;21.00;4.80;;;6.20;99.90;;;;;;5013235;28;20137;-51
2024/02/20 01:25:43;;;;;;;19.57;3.80;;;6.20;99.90;;;;;;5013164;28;20053;-51
2024/02/20 01:28:09;;;;;;;27.08;4.53;;;6.20;99.90;;;;;;5013004;28;20445;-50
2024/02/20 01:30:35;;;;;;;15.97;3.20;;;6.10;99.90;;;;;;5012745;28;20501;-49
2024/02/20 01:33:00;;;;;;;13.47;2.50;;;6.10;99.90;;;;;;5013049;28;20041;-53
2024/02/20 01:35:26;;;;;;;14.27;2.60;;;6.10;99.90;;;;;;5012857;28;20026;-50
2024/02/20 01:37:53;;;;;;;23.37;3.57;;;6.00;99.90;;;;;;5012969;28;20025;-49
2024/02/20 01:40:19;;;;;;;14.83;2.27;;;6.00;99.90;;;;;;5012735;28;20029;-48
2024/02/20 01:42:58;;;;;;;15.73;2.97;;;6.00;99.90;;;;;;5013032;28;20029;-48
2024/02/20 01:45:26;;;;;;;18.88;2.50;;;6.00;99.90;;;;;;5012733;28;20030;-52
2024/02/20 01:47:52;;;;;;;18.27;2.70;;;6.00;99.90;;;;;;5012686;28;20030;-52
2024/02/20 01:50:18;;;;;;;12.83;2.67;;;5.90;99.90;;;;;;5012520;28;20030;-51
2024/02/20 01:52:44;;;;;;;17.33;3.17;;;5.90;99.90;;;;;;5012700;28;20394;-51
2024/02/20 01:55:11;;;;;;;18.00;2.80;;;6.00;99.90;;;;;;5012606;28;20022;-49
2024/02/20 01:57:38;;;;;;;11.83;2.07;;;5.90;99.90;;;;;;5011281;28;20033;-51
2024/02/20 02:00:05;;;;;;;13.97;2.23;;;5.90;99.90;;;;;;5012407;28;20038;-49
2024/02/20 02:02:38;;;;;;;19.03;3.00;;;5.90;99.90;;;;;;5012605;28;20118;-49
2024/02/20 02:05:04;;;;;;;17.57;3.00;;;5.90;99.90;;;;;;5011252;28;20229;-51
2024/02/20 02:07:30;;;;;;;10.33;2.67;;;5.90;99.90;;;;;;5012451;28;20406;-53
2024/02/20 02:09:56;;;;;;;12.23;2.30;;;5.90;99.90;;;;;;5012249;28;20022;-49
2024/02/20 02:12:21;;;;;;;19.13;3.17;;;5.90;99.90;;;;;;5012459;28;20386;-51
2024/02/20 02:14:47;;;;;;;13.40;3.13;;;5.90;99.90;;;;;;5012412;28;20026;-50
2024/02/20 02:17:13;;;;;;;21.63;3.07;;;5.90;99.90;;;;;;5011552;28;20068;-49
2024/02/20 02:19:39;;;;;;;16.50;2.80;;;5.90;99.90;;;;;;5012240;28;20475;-50
2024/02/20 02:22:06;;;;;;;13.40;2.60;;;5.90;99.90;;;;;;5012287;28;20044;-50
2024/02/20 02:24:35;;;;;;;10.50;2.27;;;5.90;99.90;;;;;;5012199;28;20434;-51
2024/02/20 02:27:05;;;;;;;9.07;2.17;;;5.90;99.90;;;;;;5012220;28;20040;-50
2024/02/20 02:29:34;;;;;;;15.38;2.25;;;6.00;99.90;;;;;;5011921;28;20438;-49
2024/02/20 02:32:00;;;;;;;15.10;3.00;;;6.00;99.90;;;;;;5012192;28;20033;-50
2024/02/20 02:34:29;;;;;;;15.67;1.80;;;6.00;99.90;;;;;;5012114;28;20399;-51
2024/02/20 02:36:55;;;;;;;14.90;2.65;;;6.00;99.90;;;;;;5012132;28;20030;-49
2024/02/20 02:39:22;;;;;;;12.83;2.47;;;6.00;99.90;;;;;;5011827;28;20030;-49
2024/02/20 02:41:49;;;;;;;17.17;3.27;;;6.00;99.90;;;;;;5012062;28;20036;-50
2024/02/20 02:44:15;;;;;;;13.77;2.50;;;6.00;99.90;;;;;;5011988;28;20104;-48
2024/02/20 02:46:41;;;;;;;10.67;2.60;;;6.00;99.90;;;;;;5011888;28;20033;-49
2024/02/20 02:49:07;;;;;;;15.60;2.67;;;5.90;99.90;;;;;;5011745;28;20022;-50
2024/02/20 02:51:33;;;;;;;12.00;2.70;;;5.90;99.90;;;;;;5010683;28;20034;-50
2024/02/20 02:54:00;;;;;;;19.70;2.73;;;5.90;99.90;;;;;;5011845;28;20076;-50
2024/02/20 02:56:26;;;;;;;19.93;2.83;;;5.90;99.90;;;;;;5011957;28;20037;-49
2024/02/20 02:58:51;;;;;;;16.77;2.73;;;5.90;99.90;;;;;;5012143;28;20026;-49
2024/02/20 03:01:17;;;;;;;17.93;3.00;;;5.90;99.90;;;;;;5011590;28;20368;-50
2024/02/20 03:03:42;;;;;;;12.13;2.77;;;5.80;99.90;;;;;;5011871;28;20026;-51
2024/02/20 03:06:08;;;;;;;16.13;2.63;;;5.80;99.90;;;;;;5010569;28;20066;-49
2024/02/20 03:08:36;;;;;;;22.17;3.57;;;5.90;99.90;;;;;;5011858;28;20092;-48
2024/02/20 03:11:08;;;;;;;15.93;3.30;;;5.80;99.90;;;;;;5011643;28;20384;-49
2024/02/20 03:13:34;;;;;;;13.00;2.60;;;5.80;99.90;;;;;;5011732;28;20092;-51
2024/02/20 03:16:07;;;;;;;18.20;3.70;;;5.80;99.90;;;;;;5010556;28;20395;-49
2024/02/20 03:18:36;;;;;;;16.10;3.13;;;5.80;99.90;;;;;;5011784;28;20061;-49
2024/02/20 03:21:02;;;;;;;19.98;3.35;;;5.80;99.90;;;;;;5011489;28;20030;-50
2024/02/20 03:23:29;;;;;;;12.83;3.30;;;5.90;99.90;;;;;;5011628;28;20117;-52
2024/02/20 03:25:55;;;;;;;12.50;3.17;;;5.90;99.90;;;;;;5011588;28;20038;-49
2024/02/20 03:28:24;;;;;;;20.93;3.40;;;5.90;99.90;;;;;;5012345;28;20479;-51
2024/02/20 03:30:54;;;;;;;14.85;3.08;;;5.90;99.90;;;;;;5015177;28;20065;-50
2024/02/20 03:33:20;;;;;;;13.33;3.13;;;5.90;99.90;;;;;;5014004;28;20056;-51
2024/02/20 03:35:46;;;;;;;15.97;3.07;;;5.90;99.90;;;;;;5013995;28;20543;-53
2024/02/20 03:38:12;;;;;;;13.10;3.80;;;5.90;99.90;;;;;;5014047;28;20087;-49
2024/02/20 03:40:37;;;;;;;18.33;3.10;;;5.90;99.90;;;;;;5015094;28;20100;-50
2024/02/20 03:43:04;;;;;;;16.07;3.10;;;5.90;99.90;;;;;;5015224;28;20418;-52
2024/02/20 03:45:30;;;;;;;14.30;3.33;;;5.90;99.90;;;;;;5013856;28;20034;-52
2024/02/20 03:47:56;;;;;;;14.73;3.17;;;5.90;99.90;;;;;;5015247;28;20124;-51
2024/02/20 03:50:22;;;;;;;17.40;3.47;;;6.00;99.90;;;;;;5015481;28;20110;-54
2024/02/20 03:52:48;;;;;;;17.83;3.90;;;6.00;99.90;;;;;;5015166;28;20038;-52
2024/02/20 03:55:13;;;;;;;22.70;3.47;;;6.00;99.90;;;;;;5015005;28;20091;-53
2024/02/20 03:57:40;;;;;;;18.07;5.10;;;6.00;99.90;;;;;;5014968;28;20060;-53
2024/02/20 04:00:11;;;;;;;12.83;3.67;;;6.00;99.90;;;;;;5014653;28;20038;-51
2024/02/20 04:02:40;;;;;;;17.40;3.90;;;6.00;99.90;;;;;;5014759;28;20057;-50
2024/02/20 04:05:08;;;;;;;15.93;3.72;;;6.00;99.90;;;;;;5014793;28;20053;-54
2024/02/20 04:07:33;;;;;;;10.80;3.63;;;6.10;99.90;;;;;;5014739;28;20513;-51
2024/02/20 04:09:59;;;;;;;16.37;3.83;;;6.00;99.90;;;;;;5014516;28;20109;-50
2024/02/20 04:12:24;;;;;;;12.77;2.70;;;6.10;99.90;;;;;;5014684;28;20030;-55
2024/02/20 04:14:50;;;;;;;21.27;4.43;;;6.10;99.90;;;;;;5014535;28;20030;-53
2024/02/20 04:17:15;;;;;;;8.40;3.03;;;6.10;99.90;;;;;;5014632;28;20383;-53
2024/02/20 04:19:41;;;;;;;16.83;3.70;;;6.00;99.90;;;;;;5013019;28;20040;-52
2024/02/20 04:22:06;;;;;;;20.27;4.40;;;6.00;99.90;;;;;;5014427;28;20030;-53
2024/02/20 04:24:32;;;;;;;15.93;3.17;;;6.00;99.90;;;;;;5014484;28;20105;-51
2024/02/20 04:26:58;;;;;;;17.80;3.33;;;6.00;99.90;;;;;;5014504;28;20034;-52
2024/02/20 04:29:23;;;;;;;17.57;4.20;;;6.00;99.90;;;;;;5014212;28;20065;-49
2024/02/20 04:31:49;;;;;;;11.50;3.37;;;6.00;99.90;;;;;;5014176;28;20025;-51
2024/02/20 04:34:14;;;;;;;21.57;3.60;;;5.90;99.90;;;;;;5013074;28;20030;-52
2024/02/20 04:36:40;;;;;;;15.70;3.10;;;5.90;99.90;;;;;;5014298;28;20036;-52
2024/02/20 04:39:06;;;;;;;13.93;3.17;;;5.90;99.90;;;;;;5014005;28;20467;-49
2024/02/20 04:41:33;;;;;;;17.27;2.87;;;5.80;99.90;;;;;;5013237;28;20490;-52
2024/02/20 04:43:58;;;;;;;22.53;3.60;;;5.80;99.90;;;;;;5014059;28;20110;-53
2024/02/20 04:46:27;;;;;;;15.47;3.30;;;5.80;99.90;;;;;;5013943;28;20510;-53
2024/02/20 04:48:54;;;;;;;14.30;2.95;;;5.70;99.90;;;;;;5013942;28;20029;-49
2024/02/20 04:51:19;;;;;;;15.53;3.37;;;5.70;99.90;;;;;;5013949;28;20022;-53
2024/02/20 04:53:45;;;;;;;11.30;3.17;;;5.70;99.90;;;;;;5013914;28;20040;-50
2024/02/20 04:56:10;;;;;;;9.57;3.17;;;5.70;99.90;;;;;;5014071;28;20026;-54
2024/02/20 04:58:37;;;;;;;15.20;3.47;;;5.60;99.90;;;;;;5013789;28;20080;-50
2024/02/20 05:01:03;;;;;;;16.07;3.33;;;5.60;99.90;;;;;;5014146;28;20113;-52
2024/02/20 05:03:28;;;;;;;11.57;3.27;;;5.50;99.90;;;;;;5014003;28;20586;-53
2024/02/20 05:05:54;;;;;;;17.10;3.30;;;5.50;99.90;;;;;;5013663;28;20120;-53
2024/02/20 05:08:20;;;;;;;16.50;4.77;;;5.50;99.90;;;;;;5013727;28;20045;-51
2024/02/20 05:10:45;;;;;;;15.47;3.43;;;5.50;99.90;;;;;;5013442;28;20387;-52
2024/02/20 05:13:11;;;;;;;15.97;4.07;;;5.50;99.90;;;;;;5012339;28;20041;-49
2024/02/20 05:15:38;;;;;;;42.07;21.13;;;5.50;99.90;;;;;;5013522;28;20026;-50
2024/02/20 05:18:04;;;;;;;31.90;14.10;;;5.60;99.90;;;;;;5013589;28;20034;-49
2024/02/20 05:20:30;;;;;;;23.87;10.30;;;5.60;99.90;;;;;;5012203;28;20121;-49
2024/02/20 05:22:56;;;;;;;23.30;7.03;;;5.50;99.90;;;;;;5013728;28;20463;-49
2024/02/20 05:25:21;;;;;;;20.40;8.10;;;5.50;99.90;;;;;;5013353;28;20038;-52
2024/02/20 05:27:47;;;;;;;17.77;5.67;;;5.50;99.90;;;;;;5013290;28;20113;-53
2024/02/20 05:30:13;;;;;;;17.00;5.93;;;5.40;99.90;;;;;;5012900;28;20029;-52
2024/02/20 05:32:39;;;;;;;18.17;5.03;;;5.40;99.90;;;;;;5013242;28;20490;-52
2024/02/20 05:35:05;;;;;;;17.13;5.43;;;5.30;99.90;;;;;;5013317;28;20030;-51
2024/02/20 05:37:31;;;;;;;12.73;3.87;;;5.30;99.90;;;;;;5013124;28;20368;-53
2024/02/20 05:39:57;;;;;;;16.43;4.17;;;5.30;99.90;;;;;;5012900;28;20081;-51
2024/02/20 05:42:22;;;;;;;16.00;3.73;;;5.30;99.90;;;;;;5012880;28;20498;-51
2024/02/20 05:44:48;;;;;;;11.13;3.70;;;5.50;99.90;;;;;;5012848;28;20038;-51
2024/02/20 05:47:14;;;;;;;19.63;4.30;;;5.50;99.90;;;;;;5013152;28;20113;-52
2024/02/20 05:49:40;;;;;;;20.73;4.20;;;5.50;99.90;;;;;;5012936;28;20113;-51
2024/02/20 05:52:06;;;;;;;9.53;3.40;;;5.50;99.90;;;;;;5012972;28;20117;-52
2024/02/20 05:54:33;;;;;;;18.33;4.47;;;5.50;99.90;;;;;;5012989;28;20065;-51
2024/02/20 05:56:58;;;;;;;13.93;3.67;;;5.50;99.90;;;;;;5012647;28;20034;-49
2024/02/20 05:59:24;;;;;;;17.50;4.80;;;5.40;99.90;;;;;;5012618;28;20037;-48
2024/02/20 06:01:50;;;;;;;16.23;4.77;;;5.50;99.90;;;;;;5012935;28;20069;-49
2024/02/20 06:04:16;;;;;;;10.57;3.43;;;5.50;99.90;;;;;;5012833;28;20399;-49
2024/02/20 06:06:42;;;;;;;14.77;4.27;;;5.50;99.90;;;;;;5012709;28;20043;-52
2024/02/20 06:09:08;;;;;;;16.70;4.00;;;5.40;99.90;;;;;;5011374;28;20034;-52
2024/02/20 06:11:34;;;;;;;12.00;3.60;;;5.40;99.90;;;;;;5012672;28;20033;-50
2024/02/20 06:14:02;;;;;;;20.03;4.87;;;5.40;99.90;;;;;;5011071;28;20378;-51
2024/02/20 06:16:28;;;;;;;17.77;5.13;;;5.40;99.90;;;;;;5012763;28;20058;-52
2024/02/20 06:18:54;;;;;;;21.60;4.93;;;5.30;99.90;;;;;;5012517;28;20057;-48
2024/02/20 06:21:21;;;;;;;20.37;4.80;;;5.40;99.90;;;;;;5012304;28;20030;-54
2024/02/20 06:23:47;;;;;;;20.73;5.07;;;5.40;99.90;;;;;;5012315;28;20490;-49
2024/02/20 06:26:15;;;;;;;15.37;4.83;;;5.40;99.90;;;;;;5012396;28;20092;-50
2024/02/20 06:28:41;;;;;;;19.98;5.13;;;5.40;99.90;;;;;;5011021;28;20045;-50
2024/02/20 06:31:07;;;;;;;13.17;4.50;;;5.40;99.90;;;;;;5012212;28;20034;-53
2024/02/20 06:33:34;;;;;;;18.17;5.20;;;5.50;99.90;;;;;;5012249;28;20033;-50
2024/02/20 06:36:00;;;;;;;21.37;5.67;;;5.40;99.90;;;;;;5012265;28;20500;-52
2024/02/20 06:38:31;;;;;;;21.67;5.93;;;5.50;99.90;;;;;;5012264;28;20034;-51
2024/02/20 06:40:58;;;;;;;22.40;5.20;;;5.50;99.90;;;;;;5011886;28;20077;-51
2024/02/20 06:43:24;;;;;;;17.47;5.07;;;5.50;99.90;;;;;;5012136;28;20045;-52
2024/02/20 06:45:49;;;;;;;24.87;4.97;;;5.60;99.90;;;;;;5012273;28;20030;-51
2024/02/20 06:48:15;;;;;;;24.17;5.17;;;5.50;99.90;;;;;;5012019;28;20041;-52
2024/02/20 06:50:41;;;;;;;20.90;5.70;;;5.50;99.90;;;;;;5012095;28;20033;-50
2024/02/20 06:53:06;;;;;;;20.00;5.87;;;5.50;99.90;;;;;;5012167;28;20113;-51
2024/02/20 06:55:32;;;;;;;19.60;4.73;;;5.60;99.90;;;;;;5011977;28;20041;-51
2024/02/20 06:57:58;;;;;;;19.73;5.20;;;5.60;99.90;;;;;;5011907;28;20096;-49
2024/02/20 07:00:25;;;;;;;16.47;4.87;;;5.60;99.90;;;;;;5011766;28;20077;-50
2024/02/20 07:02:51;;;;;;;17.73;4.83;;;5.60;99.90;;;;;;5012287;28;20398;-53
2024/02/20 07:05:16;;;;;;;22.00;4.50;;;5.60;99.90;;;;;;5015899;28;20052;-52
2024/02/20 07:07:44;;;;;;;17.23;4.50;;;5.60;99.90;;;;;;5016292;28;20045;-53
2024/02/20 07:10:10;;;;;;;11.93;4.90;;;5.60;99.90;;;;;;5014575;28;20493;-50
2024/02/20 07:12:36;;;;;;;21.50;4.90;;;5.70;99.90;;;;;;5015933;28;20038;-51
2024/02/20 07:15:02;;;;;;;16.87;4.70;;;5.80;99.90;;;;;;5015709;28;20026;-51
2024/02/20 07:17:28;;;;;;;15.97;5.50;;;5.70;99.90;;;;;;5016071;28;20030;-53
2024/02/20 07:19:55;;;;;;;23.80;5.37;;;5.70;99.90;;;;;;5015731;28;20041;-50
2024/02/20 07:22:21;;;;;;;20.10;5.40;;;5.80;99.90;;;;;;5016412;28;20038;-49
2024/02/20 07:24:47;;;;;;;18.63;5.03;;;5.80;99.90;;;;;;5016447;28;20133;-49
2024/02/20 07:27:13;;;;;;;16.47;4.87;;;5.80;99.90;;;;;;5016253;28;20411;-51
2024/02/20 07:29:42;;;;;;;19.90;5.60;;;5.90;99.90;;;;;;5015280;28;20124;-49
2024/02/20 07:32:09;;;;;;;16.85;4.63;;;6.00;99.90;;;;;;5015542;28;20030;-52
2024/02/20 07:34:36;;;;;;;22.23;5.57;;;6.00;99.90;;;;;;5015341;28;20034;-52
2024/02/20 07:37:03;;;;;;;16.87;5.70;;;6.00;99.90;;;;;;5015247;28;20185;-52
2024/02/20 07:39:28;;;;;;;15.40;4.90;;;6.10;99.90;;;;;;5015147;28;20030;-49
2024/02/20 07:41:54;;;;;;;18.70;4.73;;;6.10;99.90;;;;;;5015130;28;20052;-49
2024/02/20 07:44:19;;;;;;;15.87;4.60;;;6.10;99.90;;;;;;5015085;28;20038;-51
2024/02/20 07:46:47;;;;;;;16.87;5.13;;;6.10;99.90;;;;;;5014977;28;20073;-51
2024/02/20 07:49:12;;;;;;;13.80;5.03;;;6.20;99.90;;;;;;5014874;28;20026;-50
2024/02/20 07:51:38;;;;;;;21.80;5.17;;;6.30;99.90;;;;;;5014975;28;20471;-49
2024/02/20 07:54:04;;;;;;;19.53;5.40;;;6.20;99.90;;;;;;5014733;28;20025;-52
2024/02/20 07:56:30;;;;;;;17.40;5.47;;;6.40;99.90;;;;;;5014797;28;20034;-51
2024/02/20 07:58:56;;;;;;;20.50;5.97;;;6.40;99.90;;;;;;5014712;28;20044;-52
2024/02/20 08:01:22;;;;;;;22.97;5.87;;;6.50;99.90;;;;;;5014828;28;20025;-50
2024/02/20 08:03:49;;;;;;;20.30;5.80;;;6.60;99.90;;;;;;5014782;28;20029;-52
2024/02/20 08:06:15;;;;;;;15.57;4.77;;;6.70;99.90;;;;;;5014891;28;20064;-52
2024/02/20 08:08:44;;;;;;;17.00;5.17;;;6.70;99.90;;;;;;5014651;28;20453;-52
2024/02/20 08:11:10;;;;;;;;;;;6.70;99.90;;;;;;5015007;28;20026;-54
2024/02/20 08:13:35;;;;;;;22.43;5.20;;;6.90;99.90;;;;;;5014512;28;19975;-51
2024/02/20 08:16:01;;;;;;;23.83;5.93;;;7.00;99.90;;;;;;5013312;28;20034;-50
2024/02/20 08:18:27;;;;;;;16.23;5.80;;;7.10;99.90;;;;;;5014479;28;20034;-54
2024/02/20 08:20:54;;;;;;;19.60;6.73;;;7.20;99.90;;;;;;5014216;28;20040;-53
2024/02/20 08:23:19;;;;;;;24.20;6.37;;;7.40;99.90;;;;;;5014855;28;20447;-54
2024/02/20 08:25:45;;;;;;;23.93;7.70;;;7.50;99.90;;;;;;5014346;28;20064;-49
2024/02/20 08:28:10;;;;;;;19.10;6.50;;;7.50;99.90;;;;;;5014240;28;20038;-49
2024/02/20 08:30:36;;;;;;;18.70;5.73;;;7.60;99.90;;;;;;5014012;28;20041;-52
2024/02/20 08:33:01;;;;;;;21.33;6.83;;;7.70;99.90;;;;;;5014236;28;20042;-50
2024/02/20 08:35:27;;;;;;;17.00;7.40;;;7.80;99.90;;;;;;5013985;28;20034;-50
2024/02/20 08:37:54;;;;;;;20.77;7.10;;;8.00;99.90;;;;;;5014066;28;20394;-52
2024/02/20 08:40:21;;;;;;;19.67;7.53;;;8.10;99.90;;;;;;5013869;28;20183;-49
2024/02/20 08:42:47;;;;;;;25.10;7.27;;;8.20;99.90;;;;;;5014006;28;20037;-53
2024/02/20 08:45:13;;;;;;;22.40;7.30;;;8.30;99.90;;;;;;5013988;28;20101;-49
2024/02/20 08:47:39;;;;;;;22.20;7.47;;;8.50;99.90;;;;;;5013756;28;20056;-48
2024/02/20 08:50:05;;;;;;;23.43;7.20;;;8.70;99.90;;;;;;5013581;28;20026;-49
2024/02/20 08:52:31;;;;;;;19.47;7.07;;;8.90;99.90;;;;;;5013732;28;20037;-51
2024/02/20 08:54:57;;;;;;;18.20;7.37;;;9.00;99.90;;;;;;5012362;28;20026;-48
2024/02/20 08:57:22;;;;;;;23.07;7.90;;;9.10;99.90;;;;;;5013753;28;20454;-51
2024/02/20 08:59:48;;;;;;;23.03;8.47;;;9.20;99.90;;;;;;5013561;28;20060;-53
2024/02/20 09:02:14;;;;;;;23.30;7.17;;;9.20;99.90;;;;;;5013722;28;20045;-51
2024/02/20 09:04:40;;;;;;;19.33;6.53;;;9.20;99.90;;;;;;5013540;28;20116;-50
2024/02/20 09:07:05;;;;;;;22.63;7.60;;;9.20;99.90;;;;;;5013442;28;20160;-51
2024/02/20 09:09:31;;;;;;;27.43;7.73;;;9.30;99.90;;;;;;5013340;28;20030;-53
2024/02/20 09:11:56;;;;;;;22.50;7.27;;;9.30;99.90;;;;;;5013568;28;20136;-53
2024/02/20 09:14:22;;;;;;;17.93;7.00;;;9.30;99.90;;;;;;5012089;28;20088;-50
2024/02/20 09:16:47;;;;;;;20.07;7.00;;;9.20;99.90;;;;;;5013566;28;20037;-49
2024/02/20 09:19:15;;;;;;;21.37;6.90;;;9.20;99.90;;;;;;5013043;28;20061;-50
2024/02/20 09:21:41;;;;;;;19.67;7.23;;;9.10;99.90;;;;;;5012067;28;20076;-52
2024/02/20 09:24:10;;;;;;;25.97;8.53;;;9.10;99.90;;;;;;5013158;28;20061;-49
2024/02/20 09:26:36;;;;;;;19.33;7.22;;;9.00;99.90;;;;;;5012912;28;20076;-50
2024/02/20 09:29:02;;;;;;;24.60;8.83;;;9.00;99.90;;;;;;5013009;28;20459;-51
2024/02/20 09:31:28;;;;;;;20.87;8.30;;;9.10;99.90;;;;;;5013202;28;20025;-51
2024/02/20 09:33:55;;;;;;;18.70;7.23;;;9.10;99.90;;;;;;5013057;28;20041;-50
2024/02/20 09:36:20;;;;;;;21.80;8.27;;;9.20;99.90;;;;;;5013170;28;20033;-50
2024/02/20 09:38:46;;;;;;;21.10;7.10;;;9.20;99.90;;;;;;5013010;28;20038;-52
2024/02/20 09:41:21;;;;;;;25.07;7.40;;;9.30;99.90;;;;;;5012570;28;20363;-52
2024/02/20 09:43:48;;;;;;;23.20;7.77;;;9.30;99.90;;;;;;5011647;28;20127;-49
2024/02/20 09:46:18;;;;;;;22.10;7.73;;;9.30;99.90;;;;;;5012805;28;20049;-51
2024/02/20 09:48:46;;;;;;;18.27;8.00;;;9.30;99.90;;;;;;5012830;28;20034;-49
2024/02/20 09:51:14;;;;;;;20.97;8.47;;;9.30;99.90;;;;;;5012637;28;20513;-51
2024/02/20 09:53:41;;;;;;;23.27;9.33;;;9.30;99.90;;;;;;5012673;28;20038;-50
2024/02/20 09:56:07;;;;;;;24.20;8.80;;;9.30;99.90;;;;;;5012871;28;20057;-52
2024/02/20 09:58:32;;;;;;;22.80;8.47;;;9.30;99.90;;;;;;5012689;28;20501;-49
2024/02/20 10:01:03;;;;;;;27.33;9.93;;;9.30;99.90;;;;;;5012331;28;20034;-50
2024/02/20 10:03:31;;;;;;;26.43;9.67;;;9.30;99.90;;;;;;5012666;28;20113;-51
2024/02/20 10:05:58;;;;;;;26.00;10.07;;;9.30;99.90;;;;;;5012605;28;20030;-53
2024/02/20 10:08:26;;;;;;;29.30;10.37;;;9.40;99.90;;;;;;5012438;28;20127;-49
2024/02/20 10:10:52;;;;;;;22.47;10.07;;;9.40;99.90;;;;;;5012368;28;20040;-52
2024/02/20 10:13:19;;;;;;;23.50;8.93;;;9.40;99.90;;;;;;5012415;28;20113;-49
2024/02/20 10:15:45;;;;;;;23.60;9.00;;;9.50;99.90;;;;;;5012510;28;20084;-51
2024/02/20 10:18:12;;;;;;;22.50;9.03;;;9.50;99.90;;;;;;5012573;28;20372;-50
2024/02/20 10:20:38;;;;;;;23.20;9.00;;;9.60;99.90;;;;;;5011045;28;20109;-50
2024/02/20 10:23:12;;;;;;;25.27;10.53;;;9.60;99.90;;;;;;5012293;28;20588;-49
2024/02/20 10:25:38;;;;;;;32.73;9.93;;;9.50;99.90;;;;;;5012448;28;20038;-52
2024/02/20 10:28:07;;;;;;;30.63;9.50;;;9.50;99.90;;;;;;5012153;28;20125;-51
2024/02/20 10:30:33;;;;;;;24.35;8.73;;;9.50;99.90;;;;;;5012104;28;20483;-51
2024/02/20 10:32:59;;;;;;;24.87;9.90;;;9.50;99.90;;;;;;5012201;28;20051;-53
2024/02/20 10:35:25;;;;;;;24.87;8.87;;;9.50;99.90;;;;;;5012224;28;20022;-51
2024/02/20 10:38:04;;;;;;;23.80;9.53;;;9.50;99.90;;;;;;5011518;28;20041;-49
2024/02/20 10:40:31;;;;;;;28.67;9.90;;;9.50;99.90;;;;;;5012080;28;20113;-50
2024/02/20 10:42:57;;;;;;;26.83;9.97;;;9.60;99.90;;;;;;5012132;28;20033;-50
2024/02/20 10:45:26;;;;;;;27.53;10.60;;;9.60;99.90;;;;;;5012311;28;20029;-51
2024/02/20 10:47:55;;;;;;;26.53;10.13;;;9.60;99.90;;;;;;5012540;28;20038;-50
2024/02/20 10:50:21;;;;;;;25.03;9.90;;;9.60;99.90;;;;;;5011753;28;20076;-51
2024/02/20 10:52:47;;;;;;;27.30;11.03;;;9.60;99.90;;;;;;5011991;28;20045;-49
2024/02/20 10:55:14;;;;;;;29.37;10.50;;;9.60;99.90;;;;;;5011841;28;20066;-52
2024/02/20 10:57:42;;;;;;;27.53;10.37;;;9.60;99.90;;;;;;5011910;28;20080;-50
2024/02/20 11:00:09;;;;;;;30.03;10.93;;;9.60;99.90;;;;;;5011770;28;20037;-50
2024/02/20 11:02:42;;;;;;;35.37;10.70;;;9.60;99.90;;;;;;5011946;28;20087;-50
2024/02/20 11:05:16;;;;;;;30.83;11.90;;;9.70;99.90;;;;;;5011928;28;20399;-49
2024/02/20 11:07:43;;;;;;;24.53;10.77;;;9.60;99.90;;;;;;5011865;28;20121;-50
2024/02/20 11:10:14;;;;;;;26.30;10.13;;;9.60;99.90;;;;;;5011597;28;20032;-51
2024/02/20 11:12:40;;;;;;;31.07;11.07;;;9.70;99.90;;;;;;5011799;28;20041;-49
2024/02/20 11:15:20;;;;;;;31.07;11.33;;;9.80;99.90;;;;;;5011732;28;20498;-50
2024/02/20 11:17:46;;;;;;;;;;;9.90;99.90;;;;;;5012400;28;20041;-49
2024/02/20 11:20:19;;;;;;;27.07;10.07;;;10.00;99.90;;;;;;5011359;28;19924;-49
2024/02/20 11:22:46;;;;;;;28.90;10.77;;;10.00;99.90;;;;;;5011748;28;20091;-50
2024/02/20 11:25:21;;;;;;;29.70;11.03;;;10.00;99.90;;;;;;5011496;28;20041;-54
2024/02/20 11:27:47;;;;;;;31.70;11.67;;;10.00;99.90;;;;;;5011675;28;20172;-51
2024/02/20 11:30:16;;;;;;;27.50;11.83;;;10.00;99.90;;;;;;5011397;28;20030;-49
2024/02/20 11:32:42;;;;;;;32.88;11.75;;;10.10;99.90;;;;;;5011750;28;20379;-50
2024/02/20 11:35:24;;;;;;;28.90;11.00;;;10.20;99.90;;;;;;5011622;28;20084;-50
2024/02/20 11:37:52;;;;;;;29.43;10.67;;;10.30;99.90;;;;;;5011656;28;20038;-50
2024/02/20 11:40:22;;;;;;;26.23;10.10;;;10.40;99.90;;;;;;5011328;28;20038;-49
2024/02/20 11:42:48;;;;;;;27.13;9.07;;;10.50;99.90;;;;;;5011640;28;20386;-49
2024/02/20 11:45:19;;;;;;;30.83;10.23;;;10.40;99.90;;;;;;5011977;28;20030;-50
2024/02/20 11:47:57;;;;;;;29.50;9.50;;;10.40;99.90;;;;;;5011565;28;20519;-52
2024/02/20 11:50:22;;;;;;;31.00;9.90;;;10.50;99.90;;;;;;5013510;28;20036;-50
2024/02/20 11:53:15;;;;;;;20.70;8.20;;;10.50;99.90;;;;;;5015277;28;20026;-50
2024/02/20 11:55:46;;;;;;;24.33;8.93;;;10.60;99.90;;;;;;5015068;28;20041;-53
2024/02/20 11:58:20;;;;;;;27.30;8.87;;;10.50;99.90;;;;;;5015017;28;20110;-52
2024/02/20 12:00:47;;;;;;;26.50;8.60;;;10.50;99.90;;;;;;5014879;28;20029;-49
2024/02/20 12:03:22;;;;;;;28.67;8.20;;;10.60;99.90;;;;;;5014953;28;20510;-53
2024/02/20 12:05:48;;;;;;;32.90;9.70;;;10.50;99.90;;;;;;5014695;28;20038;-50
2024/02/20 12:08:16;;;;;;;26.73;8.37;;;10.50;99.90;;;;;;5014551;28;20033;-52
2024/02/20 12:10:43;;;;;;;27.67;8.60;;;10.60;99.90;;;;;;5014413;28;20060;-51
2024/02/20 12:13:19;;;;;;;31.27;8.53;;;10.60;99.90;;;;;;5014593;28;20034;-52
2024/02/20 12:15:49;;;;;;;23.10;8.07;;;10.60;99.90;;;;;;5014758;28;20104;-51
2024/02/20 12:18:28;;;;;;;22.60;8.70;;;10.60;99.90;;;;;;5014577;28;20034;-50
2024/02/20 12:21:10;;;;;;;27.70;7.60;;;10.60;99.90;;;;;;5013127;28;20483;-53
2024/02/20 12:23:40;;;;;;;27.17;8.70;;;10.50;99.90;;;;;;5014567;28;20403;-50
2024/02/20 12:26:10;;;;;;;23.93;8.60;;;10.60;99.90;;;;;;5014547;28;20042;-51
2024/02/20 12:28:37;;;;;;;25.07;7.00;;;10.60;99.90;;;;;;5014232;28;20040;-51
2024/02/20 12:31:05;;;;;;;23.23;7.40;;;10.70;99.90;;;;;;5014199;28;20038;-48
2024/02/20 12:33:32;;;;;;;30.93;7.90;;;10.70;99.90;;;;;;5014467;28;20054;-49
2024/02/20 12:35:58;;;;;;;23.37;6.30;;;10.70;99.90;;;;;;5014142;28;20467;-52
2024/02/20 12:38:24;;;;;;;22.07;6.73;;;10.80;99.90;;;;;;5014424;28;20034;-49
2024/02/20 12:40:50;;;;;;;22.00;6.30;;;10.90;99.90;;;;;;5014086;28;20084;-51
2024/02/20 12:43:15;;;;;;;18.40;6.30;;;11.00;99.90;;;;;;5014125;28;20054;-54